DW3383 Weather Reports


Display with metric or nautical units.
time (UTC)temp
F
wind
direction
speed
MPH
gust
MPH
rain 1hr
in
rain 24hr
in
rain mn
in
humidity
%
barometer
mb
20220706130806 48 283 0.0 2.0 0.00 0.10 0.00 94 1012.8
20220706130306 47 291 0.0 5.0 0.00 0.10 0.00 94 1012.8
20220706120806 48 285 2.0 3.0 0.00 0.10 0.00 94 1012.5
20220706120305 48 293 1.0 3.0 0.00 0.10 0.00 93 1012.6
20220706110805 49 289 2.0 3.0 0.00 0.10 0.00 94 1012.7
20220706110305 49 288 1.0 3.0 0.00 0.10 0.00 94 1012.5
20220706100806 50 278 1.0 3.0 0.00 0.10 0.00 93 1012.3
20220706100306 51 287 1.0 3.0 0.00 0.10 0.00 92 1012.3
20220706090806 53 287 1.0 2.0 0.00 0.10 0.00 92 1012.3
20220706090307 53 270 0.0 2.0 0.00 0.10 0.00 92 1012.2
20220706080806 54 167 0.0 1.0 0.00 0.10 0.00 92 1012.3
20220706080305 55 169 0.0 1.0 0.00 0.10 0.00 91 1012.4
20220706070904 56 91 0.0 1.0 0.00 0.10 0.00 88 1012.1
20220706070306 57 86 0.0 2.0 0.00 0.10 0.00 88 1012.1
20220706060806 59 51 0.0 2.0 0.00 0.10 0.00 85 1011.9
20220706060307 59 163 0.0 2.0 0.00 0.10 0.00 86 1011.9
20220706050806 61 164 0.0 0.0 0.00 0.10 0.00 81 1012.1
20220706050307 61 175 0.0 3.0 0.00 0.10 0.00 82 1011.9
20220706040806 62 142 1.0 3.0 0.10 0.10 0.10 76 1011.7
20220706040306 62 84 1.0 9.0 0.10 0.10 0.10 78 1011.6
20220706030806 76 31 1.0 5.0 0.00 0.00 0.00 42 1010.9
20220706030306 76 259 0.0 5.0 0.00 0.00 0.00 42 1010.2
20220706020806 80 294 1.0 3.0 0.00 0.00 0.00 39 1009.8
20220706020307 80 308 2.0 7.0 0.00 0.00 0.00 41 1009.1
20220706010806 85 34 0.0 2.0 0.00 0.00 0.00 34 1009.4
20220706010306 85 243 0.0 5.0 0.00 0.00 0.00 32 1009.4
20220706000807 87 299 1.0 3.0 0.00 0.00 0.00 35 1009.3
20220706000305 87 301 1.0 5.0 0.00 0.00 0.00 34 1009.7
20220705230806 86 182 1.0 3.0 0.00 0.00 0.00 33 1010.1
20220705230305 86 319 1.0 3.0 0.00 0.00 0.00 35 1010.1
20220705220806 84 307 0.0 2.0 0.00 0.00 0.00 37 1010.8
20220705220305 84 16 1.0 5.0 0.00 0.00 0.00 37 1010.8
20220705210805 81 153 1.0 3.0 0.00 0.00 0.00 40 1011.5
20220705210306 80 275 0.0 5.0 0.00 0.00 0.00 41 1011.3
20220705200806 76 52 0.0 1.0 0.00 0.00 0.00 55 1012.0
20220705200305 75 233 0.0 2.0 0.00 0.00 0.00 52 1012.0
20220705190805 71 45 0.0 0.0 0.00 0.00 0.00 58 1012.3
20220705190306 71 45 0.0 2.0 0.00 0.00 0.00 57 1012.4
20220705180806 69 155 0.0 1.0 0.00 0.00 0.00 56 1012.4
20220705180306 68 46 0.0 3.0 0.00 0.00 0.00 57 1012.5
20220705170805 66 41 0.0 1.0 0.00 0.00 0.00 62 1012.7
20220705170305 65 314 0.0 2.0 0.00 0.00 0.00 64 1012.7
20220705160808 62 120 0.0 3.0 0.00 0.00 0.00 68 1012.5
20220705160310 61 201 0.0 2.0 0.00 0.00 0.00 71 1012.6
20220705150806 58 261 0.0 0.0 0.00 0.00 0.00 79 1012.7
20220705150306 57 261 0.0 2.0 0.00 0.00 0.00 79 1012.6
20220705140805 54 82 0.0 0.0 0.00 0.00 0.00 85 1012.6
20220705140305 54 82 0.0 2.0 0.00 0.00 0.00 85 1012.6